RYR8XN LFBO-GCTS
Flight info
| Callsign | RYR8XN |
|---|---|
| Flight time | 3h 31m |
| Altitude | 35000 |
| Route | GAUDE DCT TIVLI N869 ZAR DCT KONKE DCT TERSA DCT CJN DCT VTB DCT INPAN DCT CRISA DCT HIJ DCT SVL DCT CLANA DCT KORNO UN857 TERTO |
| Aircraft | B738/M-SADE3FGHIJ1J7LP2RWXY/SB1D1G1 |
Departure
| Time | 2026-04-29 10:16 |
|---|---|
| Airport | Toulouse-Blagnac Airport (LFBO) |
Arrival
| Time | 2026-04-29 13:48 |
|---|---|
| Airport | Tenerife Sur Airport (GCTS) |
| Time | Latitude | Longitude | Altitude | Speed | Heading |
|---|---|---|---|---|---|
| 2026-04-29 10:00 | 43.62794 | 1.37656 | 493 ft | 0 kts | 51° |
| 2026-04-29 10:01 | 43.62797 | 1.37662 | 493 ft | 0 kts | 53° |
| 2026-04-29 10:03 | 43.62797 | 1.37661 | 493 ft | 0 kts | 53° |
| 2026-04-29 10:08 | 43.62790 | 1.37649 | 485 ft | 4 kts | 52° |
| 2026-04-29 10:09 | 43.62771 | 1.37625 | 487 ft | 4 kts | 23° |
| 2026-04-29 10:09 | 43.62747 | 1.37619 | 485 ft | 4 kts | 343° |
| 2026-04-29 10:09 | 43.62734 | 1.37627 | 484 ft | 1 kts | 329° |
| 2026-04-29 10:09 | 43.62733 | 1.37628 | 484 ft | 0 kts | 329° |
| 2026-04-29 10:11 | 43.62734 | 1.37627 | 484 ft | 1 kts | 329° |
| 2026-04-29 10:11 | 43.62771 | 1.37594 | 485 ft | 14 kts | 326° |
| 2026-04-29 10:11 | 43.62824 | 1.37486 | 490 ft | 15 kts | 256° |
| 2026-04-29 10:12 | 43.62807 | 1.37356 | 486 ft | 14 kts | 300° |
| 2026-04-29 10:12 | 43.62880 | 1.37272 | 490 ft | 14 kts | 323° |
| 2026-04-29 10:12 | 43.62876 | 1.37147 | 489 ft | 15 kts | 234° |
| 2026-04-29 10:12 | 43.62836 | 1.37022 | 488 ft | 15 kts | 292° |
| 2026-04-29 10:13 | 43.62923 | 1.36920 | 493 ft | 20 kts | 323° |
| 2026-04-29 10:13 | 43.63049 | 1.36789 | 491 ft | 24 kts | 323° |
| 2026-04-29 10:13 | 43.63177 | 1.36655 | 491 ft | 23 kts | 323° |
| 2026-04-29 10:13 | 43.63301 | 1.36526 | 491 ft | 22 kts | 323° |
| 2026-04-29 10:14 | 43.63422 | 1.36401 | 491 ft | 21 kts | 323° |
| 2026-04-29 10:14 | 43.63539 | 1.36281 | 490 ft | 21 kts | 323° |
| 2026-04-29 10:14 | 43.63653 | 1.36163 | 487 ft | 20 kts | 323° |
| 2026-04-29 10:14 | 43.63757 | 1.36053 | 486 ft | 18 kts | 323° |
| 2026-04-29 10:15 | 43.63813 | 1.35930 | 491 ft | 13 kts | 253° |
| 2026-04-29 10:15 | 43.63766 | 1.35844 | 489 ft | 11 kts | 231° |
| 2026-04-29 10:15 | 43.63716 | 1.35792 | 488 ft | 9 kts | 168° |
| 2026-04-29 10:15 | 43.63663 | 1.35837 | 489 ft | 9 kts | 143° |
| 2026-04-29 10:16 | 43.63476 | 1.36034 | 490 ft | 70 kts | 143° |
| 2026-04-29 10:16 | 43.63134 | 1.36390 | 485 ft | 115 kts | 143° |
| 2026-04-29 10:16 | 43.62048 | 1.37522 | 814 ft | 167 kts | 141° |
| 2026-04-29 10:16 | 43.61698 | 1.37892 | 1134 ft | 169 kts | 141° |
| 2026-04-29 10:17 | 43.61032 | 1.38571 | 1766 ft | 167 kts | 142° |
| 2026-04-29 10:17 | 43.60127 | 1.39467 | 2784 ft | 161 kts | 143° |
| 2026-04-29 10:17 | 43.59131 | 1.40451 | 3145 ft | 190 kts | 143° |
| 2026-04-29 10:17 | 43.57990 | 1.41574 | 3459 ft | 212 kts | 143° |
| 2026-04-29 10:18 | 43.56754 | 1.42787 | 3990 ft | 220 kts | 144° |
| 2026-04-29 10:18 | 43.55496 | 1.44019 | 4520 ft | 231 kts | 145° |
| 2026-04-29 10:18 | 43.54146 | 1.45338 | 5101 ft | 237 kts | 145° |
| 2026-04-29 10:18 | 43.52800 | 1.46653 | 5708 ft | 243 kts | 145° |
| 2026-04-29 10:19 | 43.51399 | 1.48018 | 6297 ft | 250 kts | 145° |
| 2026-04-29 10:19 | 43.49930 | 1.49271 | 6974 ft | 248 kts | 160° |
| 2026-04-29 10:19 | 43.48228 | 1.49506 | 7620 ft | 249 kts | 191° |
| 2026-04-29 10:19 | 43.46655 | 1.48557 | 8355 ft | 250 kts | 218° |
| 2026-04-29 10:20 | 43.45577 | 1.46685 | 9011 ft | 255 kts | 244° |
| 2026-04-29 10:20 | 43.45236 | 1.44274 | 9662 ft | 261 kts | 268° |
| 2026-04-29 10:20 | 43.45095 | 1.41797 | 10333 ft | 259 kts | 254° |
| 2026-04-29 10:20 | 43.44443 | 1.39520 | 10887 ft | 259 kts | 237° |
| 2026-04-29 10:21 | 43.43325 | 1.37608 | 11559 ft | 257 kts | 225° |
| 2026-04-29 10:21 | 43.42078 | 1.35823 | 12130 ft | 260 kts | 225° |
| 2026-04-29 10:21 | 43.40814 | 1.34016 | 12674 ft | 264 kts | 225° |
| 2026-04-29 10:21 | 43.39541 | 1.32182 | 13322 ft | 264 kts | 226° |
| 2026-04-29 10:22 | 43.38269 | 1.30338 | 13882 ft | 268 kts | 226° |
| 2026-04-29 10:22 | 43.36980 | 1.28461 | 14374 ft | 271 kts | 226° |
| 2026-04-29 10:22 | 43.35707 | 1.26601 | 14955 ft | 271 kts | 226° |
| 2026-04-29 10:22 | 43.34401 | 1.24692 | 15415 ft | 275 kts | 226° |
| 2026-04-29 10:23 | 43.33083 | 1.22767 | 15993 ft | 275 kts | 226° |
| 2026-04-29 10:23 | 43.31759 | 1.20833 | 16442 ft | 281 kts | 226° |
| 2026-04-29 10:23 | 43.30663 | 1.18609 | 16954 ft | 284 kts | 246° |
| 2026-04-29 10:23 | 43.30265 | 1.15945 | 17466 ft | 290 kts | 267° |
| 2026-04-29 10:24 | 43.30321 | 1.13188 | 17934 ft | 294 kts | 270° |
| 2026-04-29 10:24 | 43.30428 | 1.10367 | 18393 ft | 297 kts | 270° |
| 2026-04-29 10:24 | 43.30535 | 1.07534 | 18843 ft | 298 kts | 270° |
| 2026-04-29 10:24 | 43.30632 | 1.04690 | 19296 ft | 299 kts | 270° |
| 2026-04-29 10:25 | 43.30719 | 1.01829 | 19731 ft | 301 kts | 269° |
| 2026-04-29 10:25 | 43.30803 | 0.98943 | 20159 ft | 303 kts | 269° |
| 2026-04-29 10:25 | 43.30728 | 0.96065 | 20564 ft | 302 kts | 254° |
| 2026-04-29 10:25 | 43.29882 | 0.93449 | 20974 ft | 300 kts | 233° |
| 2026-04-29 10:26 | 43.28426 | 0.91419 | 21381 ft | 300 kts | 218° |
| 2026-04-29 10:26 | 43.26734 | 0.89709 | 21784 ft | 303 kts | 216° |
| 2026-04-29 10:26 | 43.25003 | 0.88041 | 22169 ft | 305 kts | 215° |
| 2026-04-29 10:26 | 43.23276 | 0.86386 | 22567 ft | 307 kts | 216° |
| 2026-04-29 10:27 | 43.19754 | 0.82982 | 23343 ft | 312 kts | 216° |
| 2026-04-29 10:27 | 43.17973 | 0.81248 | 23578 ft | 320 kts | 216° |
| 2026-04-29 10:27 | 43.16105 | 0.79424 | 23664 ft | 337 kts | 216° |
| 2026-04-29 10:28 | 43.14156 | 0.77517 | 23762 ft | 352 kts | 216° |
| 2026-04-29 10:28 | 43.12121 | 0.75527 | 23863 ft | 366 kts | 216° |
| 2026-04-29 10:28 | 43.10002 | 0.73456 | 23959 ft | 380 kts | 216° |
| 2026-04-29 10:28 | 43.07810 | 0.71314 | 24067 ft | 393 kts | 216° |
| 2026-04-29 10:29 | 43.05589 | 0.69147 | 24359 ft | 399 kts | 216° |
| 2026-04-29 10:29 | 43.03319 | 0.66934 | 24827 ft | 401 kts | 216° |
| 2026-04-29 10:29 | 43.01212 | 0.64467 | 25291 ft | 401 kts | 230° |
| 2026-04-29 10:29 | 42.99674 | 0.61289 | 25737 ft | 403 kts | 244° |
| 2026-04-29 10:30 | 42.98804 | 0.57695 | 26149 ft | 406 kts | 254° |
| 2026-04-29 10:30 | 42.98132 | 0.53934 | 26560 ft | 409 kts | 255° |
| 2026-04-29 10:30 | 42.97493 | 0.50138 | 26970 ft | 411 kts | 255° |
| 2026-04-29 10:30 | 42.96853 | 0.46322 | 27378 ft | 413 kts | 255° |
| 2026-04-29 10:31 | 42.96202 | 0.42499 | 27751 ft | 415 kts | 255° |
| 2026-04-29 10:31 | 42.95534 | 0.38653 | 28182 ft | 416 kts | 255° |
| 2026-04-29 10:31 | 42.94855 | 0.34802 | 28573 ft | 418 kts | 255° |
| 2026-04-29 10:31 | 42.94178 | 0.31002 | 28880 ft | 421 kts | 255° |
| 2026-04-29 10:32 | 42.93478 | 0.27103 | 29216 ft | 423 kts | 254° |
| 2026-04-29 10:32 | 42.92773 | 0.23193 | 29570 ft | 424 kts | 254° |
| 2026-04-29 10:32 | 42.92067 | 0.19282 | 30051 ft | 423 kts | 254° |
| 2026-04-29 10:32 | 42.91364 | 0.15393 | 30522 ft | 420 kts | 254° |
| 2026-04-29 10:33 | 42.90667 | 0.11541 | 30970 ft | 418 kts | 254° |
| 2026-04-29 10:33 | 42.89969 | 0.07700 | 31339 ft | 417 kts | 254° |
| 2026-04-29 10:33 | 42.89268 | 0.03849 | 31714 ft | 417 kts | 254° |
| 2026-04-29 10:33 | 42.88569 | 0.00016 | 32151 ft | 415 kts | 254° |
| 2026-04-29 10:34 | 42.87880 | -0.03758 | 32608 ft | 414 kts | 253° |
| 2026-04-29 10:34 | 42.87185 | -0.07556 | 33019 ft | 412 kts | 253° |
| 2026-04-29 10:34 | 42.86489 | -0.11350 | 33417 ft | 411 kts | 253° |
| 2026-04-29 10:34 | 42.85795 | -0.15127 | 33767 ft | 411 kts | 253° |
| 2026-04-29 10:35 | 42.85100 | -0.18901 | 34086 ft | 410 kts | 253° |
| 2026-04-29 10:35 | 42.84403 | -0.22681 | 34316 ft | 411 kts | 253° |
| 2026-04-29 10:35 | 42.83713 | -0.26413 | 34556 ft | 411 kts | 253° |
| 2026-04-29 10:35 | 42.83014 | -0.30188 | 34831 ft | 410 kts | 253° |
| 2026-04-29 10:36 | 42.82313 | -0.33965 | 34932 ft | 414 kts | 253° |
| 2026-04-29 10:36 | 42.80811 | -0.40151 | 34920 ft | 412 kts | 237° |
| 2026-04-29 10:36 | 42.78371 | -0.44054 | 34929 ft | 406 kts | 219° |
| 2026-04-29 10:37 | 42.76018 | -0.46156 | 34937 ft | 405 kts | 205° |
| 2026-04-29 10:37 | 42.71663 | -0.48550 | 34940 ft | 406 kts | 202° |
| 2026-04-29 10:38 | 42.66353 | -0.51225 | 34935 ft | 408 kts | 201° |
| 2026-04-29 10:38 | 42.61020 | -0.53946 | 34942 ft | 408 kts | 202° |
| 2026-04-29 10:39 | 42.55734 | -0.56692 | 34947 ft | 409 kts | 202° |
| 2026-04-29 10:39 | 42.50411 | -0.59472 | 34947 ft | 409 kts | 202° |
| 2026-04-29 10:40 | 42.45067 | -0.62262 | 34963 ft | 418 kts | 202° |
| 2026-04-29 10:40 | 42.39576 | -0.65122 | 34949 ft | 425 kts | 202° |
| 2026-04-29 10:41 | 42.34040 | -0.67998 | 34938 ft | 426 kts | 202° |
| 2026-04-29 10:41 | 42.28510 | -0.70866 | 34943 ft | 426 kts | 202° |
| 2026-04-29 10:42 | 42.22972 | -0.73733 | 34940 ft | 425 kts | 202° |
| 2026-04-29 10:42 | 42.17450 | -0.76587 | 34949 ft | 425 kts | 202° |
| 2026-04-29 10:43 | 42.11959 | -0.79419 | 34943 ft | 424 kts | 202° |
| 2026-04-29 10:43 | 42.06434 | -0.82265 | 34941 ft | 425 kts | 202° |
| 2026-04-29 10:44 | 42.00911 | -0.85104 | 34932 ft | 425 kts | 202° |
| 2026-04-29 10:44 | 41.95382 | -0.87948 | 34929 ft | 424 kts | 202° |
| 2026-04-29 10:45 | 41.89871 | -0.90782 | 34944 ft | 423 kts | 202° |
| 2026-04-29 10:45 | 41.84364 | -0.93609 | 34930 ft | 423 kts | 202° |
| 2026-04-29 10:46 | 41.78888 | -0.96414 | 34938 ft | 423 kts | 202° |
| 2026-04-29 10:46 | 41.73383 | -0.99230 | 34937 ft | 423 kts | 202° |
| 2026-04-29 10:47 | 41.67890 | -1.02088 | 34928 ft | 423 kts | 206° |
| 2026-04-29 10:47 | 41.62981 | -1.06340 | 34933 ft | 421 kts | 222° |
| 2026-04-29 10:48 | 41.58659 | -1.11605 | 34946 ft | 423 kts | 223° |
| 2026-04-29 10:48 | 41.54300 | -1.16933 | 34940 ft | 425 kts | 222° |
| 2026-04-29 10:49 | 41.49914 | -1.22238 | 34942 ft | 425 kts | 222° |
| 2026-04-29 10:49 | 41.45514 | -1.27524 | 34932 ft | 425 kts | 222° |
| 2026-04-29 10:50 | 41.41137 | -1.32767 | 34932 ft | 425 kts | 222° |
| 2026-04-29 10:50 | 41.36730 | -1.38036 | 34930 ft | 425 kts | 222° |
| 2026-04-29 10:51 | 41.32326 | -1.43292 | 34906 ft | 424 kts | 222° |
| 2026-04-29 10:51 | 41.27957 | -1.48498 | 34924 ft | 424 kts | 222° |
| 2026-04-29 10:52 | 41.23555 | -1.53733 | 34925 ft | 424 kts | 222° |
| 2026-04-29 10:52 | 41.19159 | -1.58951 | 34932 ft | 424 kts | 222° |
| 2026-04-29 10:53 | 41.14753 | -1.64171 | 34919 ft | 424 kts | 222° |
| 2026-04-29 10:53 | 41.10353 | -1.69375 | 34923 ft | 423 kts | 222° |
| 2026-04-29 10:54 | 41.05979 | -1.74540 | 34919 ft | 423 kts | 221° |
| 2026-04-29 10:54 | 41.01570 | -1.79734 | 34919 ft | 423 kts | 222° |
| 2026-04-29 10:55 | 40.97167 | -1.84917 | 34922 ft | 423 kts | 221° |
| 2026-04-29 10:55 | 40.92783 | -1.90070 | 34921 ft | 423 kts | 221° |
| 2026-04-29 10:56 | 40.88377 | -1.95240 | 34929 ft | 424 kts | 221° |
| 2026-04-29 10:56 | 40.83963 | -2.00411 | 34925 ft | 424 kts | 221° |
| 2026-04-29 10:57 | 40.79542 | -2.05582 | 34932 ft | 424 kts | 221° |
| 2026-04-29 10:57 | 40.75113 | -2.10753 | 34928 ft | 424 kts | 221° |
| 2026-04-29 10:58 | 40.70689 | -2.15902 | 34937 ft | 425 kts | 221° |
| 2026-04-29 10:58 | 40.66246 | -2.21049 | 34931 ft | 425 kts | 221° |
| 2026-04-29 10:59 | 40.61827 | -2.26160 | 34934 ft | 425 kts | 221° |
| 2026-04-29 10:59 | 40.57373 | -2.31305 | 34935 ft | 426 kts | 221° |
| 2026-04-29 11:00 | 40.52919 | -2.36441 | 34929 ft | 426 kts | 221° |
| 2026-04-29 11:00 | 40.48445 | -2.41592 | 34929 ft | 426 kts | 221° |
| 2026-04-29 11:01 | 40.43977 | -2.46728 | 34927 ft | 427 kts | 221° |
| 2026-04-29 11:01 | 40.39533 | -2.51826 | 34919 ft | 426 kts | 221° |
| 2026-04-29 11:02 | 40.35317 | -2.57296 | 34933 ft | 426 kts | 230° |
| 2026-04-29 11:02 | 40.31544 | -2.63294 | 34928 ft | 426 kts | 230° |
| 2026-04-29 11:03 | 40.27798 | -2.69259 | 34929 ft | 426 kts | 230° |
| 2026-04-29 11:03 | 40.24004 | -2.75243 | 34922 ft | 427 kts | 230° |
| 2026-04-29 11:04 | 40.20199 | -2.81206 | 34920 ft | 426 kts | 230° |
| 2026-04-29 11:04 | 40.16394 | -2.87153 | 34933 ft | 426 kts | 230° |
| 2026-04-29 11:05 | 40.12587 | -2.93093 | 34923 ft | 426 kts | 230° |
| 2026-04-29 11:05 | 40.08774 | -2.99029 | 34923 ft | 425 kts | 230° |
| 2026-04-29 11:06 | 40.04997 | -3.04901 | 34919 ft | 425 kts | 230° |
| 2026-04-29 11:06 | 40.01193 | -3.10803 | 34926 ft | 424 kts | 230° |
| 2026-04-29 11:07 | 39.97382 | -3.16704 | 34917 ft | 424 kts | 230° |
| 2026-04-29 11:07 | 39.93572 | -3.22592 | 34917 ft | 424 kts | 230° |
| 2026-04-29 11:08 | 39.89765 | -3.28466 | 34911 ft | 424 kts | 230° |
| 2026-04-29 11:08 | 39.85960 | -3.34326 | 34906 ft | 424 kts | 230° |
| 2026-04-29 11:09 | 39.82151 | -3.40183 | 34902 ft | 424 kts | 230° |
| 2026-04-29 11:09 | 39.78362 | -3.45991 | 34904 ft | 423 kts | 229° |
| 2026-04-29 11:10 | 39.74298 | -3.51536 | 34904 ft | 423 kts | 225° |
| 2026-04-29 11:10 | 39.70118 | -3.56936 | 34904 ft | 424 kts | 225° |
| 2026-04-29 11:11 | 39.65954 | -3.62356 | 34904 ft | 424 kts | 225° |
| 2026-04-29 11:11 | 39.61801 | -3.67795 | 34901 ft | 424 kts | 225° |
| 2026-04-29 11:12 | 39.57670 | -3.73199 | 34895 ft | 424 kts | 225° |
| 2026-04-29 11:12 | 39.53508 | -3.78635 | 34904 ft | 424 kts | 225° |
| 2026-04-29 11:13 | 39.49352 | -3.84062 | 34894 ft | 424 kts | 226° |
| 2026-04-29 11:13 | 39.45197 | -3.89481 | 34908 ft | 424 kts | 226° |
| 2026-04-29 11:14 | 39.41063 | -3.94863 | 34900 ft | 424 kts | 226° |
| 2026-04-29 11:14 | 39.36901 | -4.00272 | 34904 ft | 424 kts | 226° |
| 2026-04-29 11:15 | 39.32745 | -4.05663 | 34903 ft | 423 kts | 226° |
| 2026-04-29 11:15 | 39.28586 | -4.11048 | 34906 ft | 423 kts | 226° |
| 2026-04-29 11:16 | 39.24430 | -4.16430 | 34908 ft | 423 kts | 226° |
| 2026-04-29 11:16 | 39.20275 | -4.21796 | 34895 ft | 422 kts | 226° |
| 2026-04-29 11:17 | 39.16124 | -4.27142 | 34891 ft | 421 kts | 226° |
| 2026-04-29 11:17 | 39.11998 | -4.32446 | 34914 ft | 421 kts | 226° |
| 2026-04-29 11:18 | 39.07852 | -4.37762 | 34899 ft | 420 kts | 225° |
| 2026-04-29 11:18 | 39.03706 | -4.43066 | 34906 ft | 420 kts | 225° |
| 2026-04-29 11:19 | 38.99565 | -4.48365 | 34894 ft | 419 kts | 225° |
| 2026-04-29 11:19 | 38.95435 | -4.53639 | 34909 ft | 419 kts | 226° |
| 2026-04-29 11:20 | 38.91353 | -4.58838 | 34899 ft | 418 kts | 225° |
| 2026-04-29 11:20 | 38.87209 | -4.64101 | 34893 ft | 418 kts | 225° |
| 2026-04-29 11:21 | 38.83770 | -4.68464 | 34908 ft | 418 kts | 225° |
| 2026-04-29 11:21 | 38.79633 | -4.73705 | 34894 ft | 418 kts | 225° |
| 2026-04-29 11:22 | 38.74812 | -4.79803 | 34902 ft | 418 kts | 225° |
| 2026-04-29 11:22 | 38.71371 | -4.84148 | 34896 ft | 417 kts | 225° |
| 2026-04-29 11:23 | 38.67231 | -4.89367 | 34898 ft | 418 kts | 225° |
| 2026-04-29 11:23 | 38.63064 | -4.94612 | 34907 ft | 423 kts | 225° |
| 2026-04-29 11:24 | 38.58844 | -4.99916 | 34889 ft | 426 kts | 225° |
| 2026-04-29 11:24 | 38.54605 | -5.05232 | 34974 ft | 426 kts | 227° |
| 2026-04-29 11:24 | 38.52531 | -5.07798 | 34923 ft | 413 kts | 225° |
| 2026-04-29 11:25 | 38.50299 | -5.10049 | 34899 ft | 406 kts | 219° |
| 2026-04-29 11:25 | 38.45305 | -5.13495 | 34900 ft | 411 kts | 211° |
| 2026-04-29 11:26 | 38.37521 | -5.18267 | 34895 ft | 415 kts | 211° |
| 2026-04-29 11:26 | 38.32329 | -5.21472 | 34899 ft | 418 kts | 211° |
| 2026-04-29 11:27 | 38.27084 | -5.24717 | 34900 ft | 420 kts | 211° |
| 2026-04-29 11:27 | 38.21817 | -5.27971 | 34900 ft | 421 kts | 211° |
| 2026-04-29 11:28 | 38.16546 | -5.31225 | 34901 ft | 421 kts | 211° |
| 2026-04-29 11:28 | 38.11271 | -5.34474 | 34894 ft | 421 kts | 211° |
| 2026-04-29 11:29 | 38.06003 | -5.37714 | 34893 ft | 419 kts | 211° |
| 2026-04-29 11:29 | 38.00780 | -5.40921 | 34902 ft | 417 kts | 211° |
| 2026-04-29 11:30 | 37.95559 | -5.44123 | 34914 ft | 416 kts | 211° |
| 2026-04-29 11:30 | 37.90337 | -5.47321 | 34914 ft | 416 kts | 211° |
| 2026-04-29 11:31 | 37.85155 | -5.50488 | 34907 ft | 415 kts | 211° |
| 2026-04-29 11:31 | 37.79951 | -5.53665 | 34897 ft | 415 kts | 211° |
| 2026-04-29 11:32 | 37.74738 | -5.56842 | 34900 ft | 415 kts | 211° |
| 2026-04-29 11:32 | 37.69524 | -5.60015 | 34898 ft | 415 kts | 211° |
| 2026-04-29 11:33 | 37.64342 | -5.63162 | 34915 ft | 416 kts | 211° |
| 2026-04-29 11:33 | 37.59101 | -5.66342 | 34902 ft | 419 kts | 211° |
| 2026-04-29 11:34 | 37.53850 | -5.69522 | 34922 ft | 418 kts | 211° |
| 2026-04-29 11:34 | 37.48598 | -5.72698 | 34934 ft | 418 kts | 211° |
| 2026-04-29 11:35 | 37.43372 | -5.75954 | 34924 ft | 416 kts | 216° |
| 2026-04-29 11:35 | 37.38855 | -5.80288 | 34945 ft | 410 kts | 225° |
| 2026-04-29 11:36 | 37.34526 | -5.84960 | 34935 ft | 410 kts | 225° |
| 2026-04-29 11:36 | 37.30180 | -5.89618 | 34939 ft | 411 kts | 224° |
| 2026-04-29 11:37 | 37.25818 | -5.94260 | 34940 ft | 411 kts | 224° |
| 2026-04-29 11:37 | 37.21453 | -5.98889 | 34940 ft | 411 kts | 224° |
| 2026-04-29 11:38 | 37.17095 | -6.03499 | 34923 ft | 407 kts | 224° |
| 2026-04-29 11:38 | 37.12788 | -6.08048 | 34920 ft | 403 kts | 224° |
| 2026-04-29 11:39 | 37.08511 | -6.12564 | 34930 ft | 406 kts | 224° |
| 2026-04-29 11:39 | 37.04175 | -6.17134 | 34926 ft | 409 kts | 224° |
| 2026-04-29 11:40 | 36.99804 | -6.21733 | 34919 ft | 412 kts | 224° |
| 2026-04-29 11:40 | 36.95406 | -6.26352 | 34928 ft | 414 kts | 224° |
| 2026-04-29 11:41 | 36.90990 | -6.30981 | 34930 ft | 415 kts | 224° |
| 2026-04-29 11:41 | 36.86547 | -6.35633 | 34944 ft | 418 kts | 224° |
| 2026-04-29 11:42 | 36.82108 | -6.40272 | 34923 ft | 411 kts | 224° |
| 2026-04-29 11:42 | 36.77778 | -6.44788 | 34937 ft | 408 kts | 224° |
| 2026-04-29 11:43 | 36.73422 | -6.49330 | 34937 ft | 408 kts | 224° |
| 2026-04-29 11:43 | 36.69071 | -6.53860 | 34938 ft | 408 kts | 224° |
| 2026-04-29 11:44 | 36.64703 | -6.58399 | 34937 ft | 408 kts | 224° |
| 2026-04-29 11:44 | 36.60331 | -6.62935 | 34938 ft | 409 kts | 224° |
| 2026-04-29 11:45 | 36.55952 | -6.67472 | 34937 ft | 410 kts | 224° |
| 2026-04-29 11:45 | 36.51563 | -6.72012 | 34937 ft | 410 kts | 224° |
| 2026-04-29 11:46 | 36.47199 | -6.76515 | 34939 ft | 411 kts | 224° |
| 2026-04-29 11:46 | 36.42794 | -6.81051 | 34941 ft | 411 kts | 224° |
| 2026-04-29 11:47 | 36.38379 | -6.85592 | 34935 ft | 411 kts | 224° |
| 2026-04-29 11:47 | 36.33968 | -6.90124 | 34942 ft | 412 kts | 224° |
| 2026-04-29 11:48 | 36.29575 | -6.94630 | 34935 ft | 411 kts | 224° |
| 2026-04-29 11:48 | 36.25156 | -6.99156 | 34937 ft | 411 kts | 224° |
| 2026-04-29 11:49 | 36.20751 | -7.03661 | 34940 ft | 410 kts | 224° |
| 2026-04-29 11:49 | 36.16346 | -7.08160 | 34941 ft | 410 kts | 223° |
| 2026-04-29 11:50 | 36.11970 | -7.12622 | 34939 ft | 410 kts | 223° |
| 2026-04-29 11:50 | 36.07575 | -7.17097 | 34943 ft | 409 kts | 223° |
| 2026-04-29 11:51 | 36.03179 | -7.21566 | 34943 ft | 409 kts | 223° |
| 2026-04-29 11:51 | 35.98783 | -7.26030 | 34945 ft | 408 kts | 223° |
| 2026-04-29 11:52 | 35.94394 | -7.30479 | 34942 ft | 408 kts | 223° |
| 2026-04-29 11:52 | 35.90001 | -7.34926 | 34951 ft | 408 kts | 223° |
| 2026-04-29 11:53 | 35.85634 | -7.39341 | 34947 ft | 408 kts | 223° |
| 2026-04-29 11:53 | 35.81232 | -7.43773 | 34948 ft | 409 kts | 223° |
| 2026-04-29 11:54 | 35.76810 | -7.48182 | 34946 ft | 409 kts | 223° |
| 2026-04-29 11:54 | 35.72384 | -7.52588 | 34952 ft | 409 kts | 223° |
| 2026-04-29 11:55 | 35.67952 | -7.56997 | 34951 ft | 410 kts | 223° |
| 2026-04-29 11:55 | 35.63511 | -7.61412 | 34950 ft | 410 kts | 223° |
| 2026-04-29 11:56 | 35.59061 | -7.65828 | 34950 ft | 411 kts | 223° |
| 2026-04-29 11:56 | 35.54642 | -7.70209 | 34951 ft | 411 kts | 223° |
| 2026-04-29 11:57 | 35.50188 | -7.74617 | 34952 ft | 411 kts | 223° |
| 2026-04-29 11:57 | 35.45731 | -7.79024 | 34952 ft | 411 kts | 223° |
| 2026-04-29 11:58 | 35.41266 | -7.83430 | 34950 ft | 411 kts | 223° |
| 2026-04-29 11:58 | 35.36824 | -7.87854 | 34953 ft | 411 kts | 223° |
| 2026-04-29 11:59 | 35.32390 | -7.92290 | 34952 ft | 411 kts | 223° |
| 2026-04-29 11:59 | 35.27975 | -7.96700 | 34950 ft | 412 kts | 223° |
| 2026-04-29 12:00 | 35.23530 | -8.01129 | 34958 ft | 412 kts | 223° |
| 2026-04-29 12:00 | 35.19088 | -8.05548 | 34958 ft | 412 kts | 223° |
| 2026-04-29 12:01 | 35.14632 | -8.09973 | 34960 ft | 412 kts | 223° |
| 2026-04-29 12:01 | 35.10180 | -8.14388 | 34960 ft | 412 kts | 223° |
| 2026-04-29 12:02 | 35.05726 | -8.18799 | 34955 ft | 412 kts | 222° |
| 2026-04-29 12:02 | 35.01302 | -8.23174 | 34963 ft | 412 kts | 223° |
| 2026-04-29 12:03 | 34.96833 | -8.27587 | 34959 ft | 413 kts | 223° |
| 2026-04-29 12:03 | 34.92362 | -8.31996 | 34958 ft | 413 kts | 222° |
| 2026-04-29 12:04 | 34.87886 | -8.36402 | 34961 ft | 413 kts | 222° |
| 2026-04-29 12:04 | 34.83437 | -8.40777 | 34966 ft | 413 kts | 222° |
| 2026-04-29 12:05 | 34.78954 | -8.45179 | 34962 ft | 414 kts | 222° |
| 2026-04-29 12:05 | 34.74466 | -8.49579 | 34964 ft | 414 kts | 222° |
| 2026-04-29 12:06 | 34.69999 | -8.53952 | 34970 ft | 414 kts | 222° |
| 2026-04-29 12:06 | 34.65503 | -8.58347 | 34967 ft | 415 kts | 222° |
| 2026-04-29 12:07 | 34.61005 | -8.62739 | 34966 ft | 415 kts | 222° |
| 2026-04-29 12:07 | 34.57262 | -8.66388 | 34966 ft | 415 kts | 222° |
| 2026-04-29 12:08 | 34.52760 | -8.70772 | 34969 ft | 415 kts | 222° |
| 2026-04-29 12:08 | 34.48245 | -8.75164 | 34970 ft | 415 kts | 222° |
| 2026-04-29 12:09 | 34.43763 | -8.79515 | 34968 ft | 415 kts | 221° |
| 2026-04-29 12:09 | 34.39238 | -8.83872 | 34971 ft | 415 kts | 221° |
| 2026-04-29 12:10 | 34.34705 | -8.88222 | 34968 ft | 416 kts | 221° |
| 2026-04-29 12:10 | 34.30168 | -8.92573 | 34966 ft | 416 kts | 221° |
| 2026-04-29 12:11 | 34.25627 | -8.96924 | 34970 ft | 416 kts | 221° |
| 2026-04-29 12:11 | 34.21108 | -9.01250 | 34964 ft | 416 kts | 221° |
| 2026-04-29 12:12 | 34.16532 | -9.05624 | 34969 ft | 417 kts | 221° |
| 2026-04-29 12:12 | 34.12016 | -9.09935 | 34974 ft | 417 kts | 221° |
| 2026-04-29 12:13 | 34.07458 | -9.14280 | 34970 ft | 417 kts | 221° |
| 2026-04-29 12:13 | 34.02899 | -9.18619 | 34974 ft | 418 kts | 221° |
| 2026-04-29 12:14 | 33.98353 | -9.22939 | 34971 ft | 418 kts | 221° |
| 2026-04-29 12:14 | 33.93783 | -9.27277 | 34975 ft | 418 kts | 221° |
| 2026-04-29 12:15 | 33.89203 | -9.31618 | 34972 ft | 419 kts | 221° |
| 2026-04-29 12:15 | 33.84622 | -9.35954 | 34969 ft | 419 kts | 221° |
| 2026-04-29 12:16 | 33.80028 | -9.40296 | 34968 ft | 419 kts | 221° |
| 2026-04-29 12:16 | 33.75433 | -9.44633 | 34984 ft | 420 kts | 220° |
| 2026-04-29 12:17 | 33.70829 | -9.48972 | 34979 ft | 420 kts | 220° |
| 2026-04-29 12:17 | 33.66251 | -9.53281 | 34979 ft | 421 kts | 220° |
| 2026-04-29 12:18 | 33.61638 | -9.57616 | 34977 ft | 421 kts | 220° |
| 2026-04-29 12:18 | 33.57028 | -9.61943 | 34979 ft | 421 kts | 220° |
| 2026-04-29 12:19 | 33.52399 | -9.66282 | 34981 ft | 421 kts | 220° |
| 2026-04-29 12:19 | 33.47776 | -9.70608 | 34978 ft | 422 kts | 220° |
| 2026-04-29 12:20 | 33.43168 | -9.74916 | 34981 ft | 422 kts | 220° |
| 2026-04-29 12:20 | 33.38530 | -9.79245 | 34981 ft | 422 kts | 220° |
| 2026-04-29 12:21 | 33.33883 | -9.83576 | 34982 ft | 423 kts | 220° |
| 2026-04-29 12:21 | 33.29236 | -9.87902 | 34982 ft | 423 kts | 220° |
| 2026-04-29 12:22 | 33.24612 | -9.92200 | 34983 ft | 423 kts | 220° |
| 2026-04-29 12:22 | 33.19957 | -9.96521 | 34982 ft | 424 kts | 220° |
| 2026-04-29 12:23 | 33.15299 | -10.00839 | 34984 ft | 424 kts | 220° |
| 2026-04-29 12:23 | 33.10628 | -10.05163 | 34983 ft | 424 kts | 220° |
| 2026-04-29 12:24 | 33.05956 | -10.09484 | 34983 ft | 425 kts | 220° |
| 2026-04-29 12:24 | 33.01286 | -10.13795 | 34982 ft | 425 kts | 220° |
| 2026-04-29 12:25 | 32.96637 | -10.18076 | 34984 ft | 425 kts | 220° |
| 2026-04-29 12:26 | 32.89593 | -10.24553 | 34981 ft | 426 kts | 219° |
| 2026-04-29 12:26 | 32.84898 | -10.28864 | 34988 ft | 426 kts | 219° |
| 2026-04-29 12:27 | 32.80224 | -10.33151 | 34986 ft | 427 kts | 219° |
| 2026-04-29 12:27 | 32.75519 | -10.37460 | 34982 ft | 427 kts | 219° |
| 2026-04-29 12:28 | 32.70811 | -10.41767 | 34988 ft | 427 kts | 219° |
| 2026-04-29 12:28 | 32.66083 | -10.46085 | 34989 ft | 428 kts | 219° |
| 2026-04-29 12:29 | 32.61358 | -10.50395 | 34986 ft | 428 kts | 219° |
| 2026-04-29 12:29 | 32.56633 | -10.54698 | 34981 ft | 428 kts | 219° |
| 2026-04-29 12:30 | 32.51931 | -10.58976 | 34989 ft | 429 kts | 219° |
| 2026-04-29 12:30 | 32.47182 | -10.63290 | 34990 ft | 429 kts | 219° |
| 2026-04-29 12:31 | 32.42442 | -10.67589 | 34989 ft | 430 kts | 219° |
| 2026-04-29 12:31 | 32.37688 | -10.71896 | 34987 ft | 430 kts | 219° |
| 2026-04-29 12:32 | 32.32959 | -10.76175 | 34990 ft | 430 kts | 219° |
| 2026-04-29 12:32 | 32.28191 | -10.80483 | 34988 ft | 431 kts | 219° |
| 2026-04-29 12:33 | 32.23423 | -10.84785 | 34988 ft | 431 kts | 219° |
| 2026-04-29 12:33 | 32.18647 | -10.89089 | 34990 ft | 432 kts | 219° |
| 2026-04-29 12:34 | 32.13890 | -10.93369 | 34987 ft | 432 kts | 219° |
| 2026-04-29 12:34 | 32.09098 | -10.97675 | 34989 ft | 432 kts | 219° |
| 2026-04-29 12:35 | 32.04303 | -11.01978 | 34989 ft | 433 kts | 219° |
| 2026-04-29 12:35 | 31.99505 | -11.06278 | 34991 ft | 433 kts | 219° |
| 2026-04-29 12:36 | 31.94702 | -11.10577 | 34992 ft | 433 kts | 219° |
| 2026-04-29 12:36 | 31.89899 | -11.14870 | 34990 ft | 434 kts | 219° |
| 2026-04-29 12:37 | 31.85087 | -11.19166 | 34995 ft | 434 kts | 219° |
| 2026-04-29 12:37 | 31.80304 | -11.23432 | 34992 ft | 434 kts | 219° |
| 2026-04-29 12:38 | 31.75483 | -11.27724 | 34993 ft | 435 kts | 219° |
| 2026-04-29 12:38 | 31.70662 | -11.32016 | 34995 ft | 435 kts | 219° |
| 2026-04-29 12:39 | 31.65836 | -11.36314 | 34994 ft | 435 kts | 219° |
| 2026-04-29 12:39 | 31.61016 | -11.40602 | 34995 ft | 435 kts | 219° |
| 2026-04-29 12:40 | 31.56185 | -11.44894 | 34995 ft | 435 kts | 219° |
| 2026-04-29 12:40 | 31.51389 | -11.49148 | 34995 ft | 435 kts | 219° |
| 2026-04-29 12:41 | 31.46551 | -11.53434 | 34999 ft | 435 kts | 219° |
| 2026-04-29 12:41 | 31.41708 | -11.57719 | 34995 ft | 435 kts | 219° |
| 2026-04-29 12:42 | 31.36891 | -11.61976 | 34996 ft | 435 kts | 219° |
| 2026-04-29 12:42 | 31.32050 | -11.66248 | 34995 ft | 435 kts | 219° |
| 2026-04-29 12:43 | 31.27205 | -11.70517 | 34998 ft | 435 kts | 219° |
| 2026-04-29 12:43 | 31.22365 | -11.74777 | 34996 ft | 435 kts | 219° |
| 2026-04-29 12:44 | 31.17554 | -11.79005 | 34996 ft | 435 kts | 219° |
| 2026-04-29 12:44 | 31.12719 | -11.83249 | 34998 ft | 435 kts | 219° |
| 2026-04-29 12:45 | 31.07881 | -11.87491 | 34997 ft | 434 kts | 220° |
| 2026-04-29 12:45 | 31.03038 | -11.91731 | 34996 ft | 434 kts | 220° |
| 2026-04-29 12:46 | 30.98209 | -11.95954 | 34998 ft | 433 kts | 220° |
| 2026-04-29 12:46 | 30.93402 | -12.00151 | 34998 ft | 433 kts | 220° |
| 2026-04-29 12:47 | 30.88575 | -12.04361 | 34998 ft | 433 kts | 220° |
| 2026-04-29 12:47 | 30.83781 | -12.08537 | 35000 ft | 432 kts | 220° |
| 2026-04-29 12:48 | 30.78967 | -12.12725 | 35002 ft | 432 kts | 220° |
| 2026-04-29 12:48 | 30.74155 | -12.16905 | 34997 ft | 431 kts | 220° |
| 2026-04-29 12:49 | 30.69350 | -12.21075 | 35002 ft | 431 kts | 220° |
| 2026-04-29 12:49 | 30.64546 | -12.25239 | 35000 ft | 430 kts | 220° |
| 2026-04-29 12:50 | 30.59744 | -12.29396 | 35002 ft | 430 kts | 220° |
| 2026-04-29 12:50 | 30.54983 | -12.33513 | 35000 ft | 429 kts | 220° |
| 2026-04-29 12:51 | 30.50193 | -12.37648 | 35001 ft | 429 kts | 220° |
| 2026-04-29 12:51 | 30.45403 | -12.41766 | 35006 ft | 428 kts | 220° |
| 2026-04-29 12:52 | 30.40625 | -12.45863 | 35002 ft | 428 kts | 220° |
| 2026-04-29 12:52 | 30.35841 | -12.49965 | 35234 ft | 428 kts | 215° |
| 2026-04-29 12:52 | 30.33424 | -12.52041 | 35120 ft | 437 kts | 217° |
| 2026-04-29 12:53 | 30.30962 | -12.54147 | 35088 ft | 444 kts | 217° |
| 2026-04-29 12:53 | 30.26780 | -12.57722 | 35030 ft | 455 kts | 216° |
| 2026-04-29 12:54 | 30.21702 | -12.62059 | 34995 ft | 440 kts | 216° |
| 2026-04-29 12:54 | 30.16870 | -12.66183 | 34996 ft | 429 kts | 216° |
| 2026-04-29 12:55 | 30.12086 | -12.70262 | 35003 ft | 427 kts | 216° |
| 2026-04-29 12:55 | 30.07356 | -12.74423 | 35002 ft | 427 kts | 219° |
| 2026-04-29 12:56 | 30.02769 | -12.78779 | 35011 ft | 427 kts | 220° |
| 2026-04-29 12:56 | 29.98186 | -12.83157 | 35004 ft | 427 kts | 219° |
| 2026-04-29 12:57 | 29.93590 | -12.87504 | 35005 ft | 428 kts | 219° |
| 2026-04-29 12:57 | 29.89000 | -12.91818 | 35002 ft | 428 kts | 219° |
| 2026-04-29 12:58 | 29.84370 | -12.96157 | 34999 ft | 429 kts | 219° |
| 2026-04-29 12:58 | 29.79739 | -13.00491 | 35006 ft | 429 kts | 219° |
| 2026-04-29 12:59 | 29.75101 | -13.04827 | 35002 ft | 429 kts | 219° |
| 2026-04-29 12:59 | 29.70456 | -13.09164 | 34998 ft | 430 kts | 219° |
| 2026-04-29 13:00 | 29.65838 | -13.13471 | 34998 ft | 430 kts | 219° |
| 2026-04-29 13:00 | 29.61190 | -13.17800 | 34998 ft | 430 kts | 219° |
| 2026-04-29 13:01 | 29.56539 | -13.22127 | 34998 ft | 429 kts | 219° |
| 2026-04-29 13:01 | 29.51893 | -13.26444 | 35007 ft | 429 kts | 219° |
| 2026-04-29 13:02 | 29.47245 | -13.30758 | 35006 ft | 429 kts | 219° |
| 2026-04-29 13:02 | 29.44951 | -13.32885 | 34740 ft | 428 kts | 220° |
| 2026-04-29 13:02 | 29.42659 | -13.35006 | 34875 ft | 421 kts | 221° |
| 2026-04-29 13:03 | 29.38133 | -13.39197 | 34949 ft | 414 kts | 220° |
| 2026-04-29 13:03 | 29.33650 | -13.43343 | 34991 ft | 413 kts | 220° |
| 2026-04-29 13:04 | 29.29187 | -13.47468 | 34998 ft | 412 kts | 220° |
| 2026-04-29 13:04 | 29.24746 | -13.51565 | 35002 ft | 412 kts | 220° |
| 2026-04-29 13:05 | 29.20273 | -13.55688 | 34998 ft | 413 kts | 220° |
| 2026-04-29 13:05 | 29.15788 | -13.59816 | 34996 ft | 413 kts | 220° |
| 2026-04-29 13:06 | 29.11305 | -13.63939 | 34996 ft | 414 kts | 220° |
| 2026-04-29 13:06 | 29.06807 | -13.68069 | 34998 ft | 414 kts | 220° |
| 2026-04-29 13:07 | 29.02331 | -13.72175 | 34994 ft | 415 kts | 220° |
| 2026-04-29 13:07 | 28.97828 | -13.76301 | 35002 ft | 415 kts | 220° |
| 2026-04-29 13:08 | 28.93314 | -13.80433 | 34993 ft | 416 kts | 220° |
| 2026-04-29 13:08 | 28.88794 | -13.84565 | 34997 ft | 416 kts | 220° |
| 2026-04-29 13:09 | 28.84301 | -13.88667 | 34999 ft | 415 kts | 220° |
| 2026-04-29 13:09 | 28.79790 | -13.92781 | 34998 ft | 415 kts | 220° |
| 2026-04-29 13:10 | 28.75283 | -13.96887 | 35002 ft | 413 kts | 220° |
| 2026-04-29 13:10 | 28.70791 | -14.00975 | 35007 ft | 413 kts | 220° |
| 2026-04-29 13:11 | 28.66312 | -14.05046 | 35005 ft | 411 kts | 220° |
| 2026-04-29 13:11 | 28.61839 | -14.09107 | 35009 ft | 410 kts | 220° |
| 2026-04-29 13:12 | 28.57403 | -14.13131 | 35010 ft | 410 kts | 220° |
| 2026-04-29 13:12 | 28.52938 | -14.17175 | 35004 ft | 409 kts | 220° |
| 2026-04-29 13:13 | 28.48486 | -14.21204 | 35008 ft | 408 kts | 220° |
| 2026-04-29 13:13 | 28.44065 | -14.25201 | 35003 ft | 408 kts | 220° |
| 2026-04-29 13:14 | 28.39621 | -14.29214 | 35003 ft | 408 kts | 220° |
| 2026-04-29 13:14 | 28.35167 | -14.33231 | 35006 ft | 408 kts | 220° |
| 2026-04-29 13:15 | 28.30714 | -14.37243 | 35003 ft | 408 kts | 220° |
| 2026-04-29 13:15 | 28.26287 | -14.41227 | 35005 ft | 408 kts | 220° |
| 2026-04-29 13:16 | 28.21835 | -14.45230 | 35006 ft | 408 kts | 220° |
| 2026-04-29 13:16 | 28.17377 | -14.49233 | 35009 ft | 408 kts | 220° |
| 2026-04-29 13:17 | 28.12928 | -14.53225 | 35005 ft | 408 kts | 220° |
| 2026-04-29 13:17 | 28.08474 | -14.57217 | 35007 ft | 408 kts | 220° |
| 2026-04-29 13:18 | 28.04050 | -14.61178 | 35008 ft | 407 kts | 220° |
| 2026-04-29 13:18 | 28.00195 | -14.65768 | 35016 ft | 403 kts | 240° |
| 2026-04-29 13:18 | 27.99064 | -14.68673 | 35010 ft | 403 kts | 252° |
| 2026-04-29 13:19 | 27.98347 | -14.71741 | 35013 ft | 404 kts | 254° |
| 2026-04-29 13:19 | 27.97076 | -14.77897 | 35007 ft | 404 kts | 255° |
| 2026-04-29 13:20 | 27.95793 | -14.84087 | 35008 ft | 403 kts | 255° |
| 2026-04-29 13:20 | 27.94474 | -14.90257 | 35008 ft | 403 kts | 254° |
| 2026-04-29 13:21 | 27.93139 | -14.96407 | 35007 ft | 402 kts | 254° |
| 2026-04-29 13:21 | 27.92477 | -14.99448 | 34992 ft | 391 kts | 254° |
| 2026-04-29 13:21 | 27.91841 | -15.02364 | 34978 ft | 382 kts | 254° |
| 2026-04-29 13:21 | 27.91208 | -15.05267 | 34617 ft | 377 kts | 254° |
| 2026-04-29 13:22 | 27.90576 | -15.08152 | 34000 ft | 379 kts | 254° |
| 2026-04-29 13:22 | 27.89934 | -15.11078 | 33165 ft | 385 kts | 254° |
| 2026-04-29 13:22 | 27.89284 | -15.14037 | 32319 ft | 391 kts | 254° |
| 2026-04-29 13:22 | 27.88622 | -15.17047 | 31558 ft | 395 kts | 254° |
| 2026-04-29 13:23 | 27.87974 | -15.20002 | 31121 ft | 390 kts | 254° |
| 2026-04-29 13:23 | 27.87324 | -15.22964 | 30699 ft | 385 kts | 254° |
| 2026-04-29 13:23 | 27.86679 | -15.25900 | 30077 ft | 385 kts | 254° |
| 2026-04-29 13:23 | 27.86025 | -15.28865 | 29147 ft | 391 kts | 254° |
| 2026-04-29 13:24 | 27.85361 | -15.31872 | 28144 ft | 397 kts | 254° |
| 2026-04-29 13:24 | 27.84698 | -15.34879 | 27492 ft | 397 kts | 255° |
| 2026-04-29 13:24 | 27.84033 | -15.37890 | 27002 ft | 392 kts | 255° |
| 2026-04-29 13:24 | 27.83390 | -15.40917 | 26560 ft | 403 kts | 258° |
| 2026-04-29 13:25 | 27.83043 | -15.44098 | 26058 ft | 413 kts | 265° |
| 2026-04-29 13:25 | 27.83427 | -15.50587 | 24891 ft | 409 kts | 274° |
| 2026-04-29 13:25 | 27.83723 | -15.53679 | 24443 ft | 391 kts | 274° |
| 2026-04-29 13:26 | 27.84006 | -15.56673 | 24031 ft | 375 kts | 274° |
| 2026-04-29 13:26 | 27.84267 | -15.59549 | 23625 ft | 361 kts | 273° |
| 2026-04-29 13:26 | 27.84512 | -15.62326 | 23179 ft | 349 kts | 273° |
| 2026-04-29 13:26 | 27.84750 | -15.65011 | 22775 ft | 336 kts | 273° |
| 2026-04-29 13:27 | 27.84977 | -15.67601 | 22403 ft | 325 kts | 273° |
| 2026-04-29 13:27 | 27.85194 | -15.70093 | 22066 ft | 314 kts | 273° |
| 2026-04-29 13:27 | 27.85402 | -15.72510 | 21740 ft | 304 kts | 273° |
| 2026-04-29 13:27 | 27.85605 | -15.74867 | 21390 ft | 299 kts | 272° |
| 2026-04-29 13:28 | 27.85802 | -15.77184 | 21109 ft | 296 kts | 272° |
| 2026-04-29 13:28 | 27.85997 | -15.79485 | 20763 ft | 299 kts | 272° |
| 2026-04-29 13:28 | 27.86195 | -15.81824 | 20426 ft | 298 kts | 272° |
| 2026-04-29 13:28 | 27.86393 | -15.84154 | 20097 ft | 297 kts | 272° |
| 2026-04-29 13:29 | 27.86590 | -15.86472 | 19769 ft | 295 kts | 272° |
| 2026-04-29 13:29 | 27.86785 | -15.88779 | 19451 ft | 294 kts | 272° |
| 2026-04-29 13:29 | 27.86980 | -15.91077 | 19126 ft | 293 kts | 272° |
| 2026-04-29 13:29 | 27.87173 | -15.93370 | 18813 ft | 292 kts | 272° |
| 2026-04-29 13:30 | 27.87366 | -15.95654 | 18488 ft | 292 kts | 272° |
| 2026-04-29 13:30 | 27.87557 | -15.97935 | 18145 ft | 291 kts | 272° |
| 2026-04-29 13:30 | 27.87748 | -16.00212 | 17788 ft | 290 kts | 272° |
| 2026-04-29 13:30 | 27.87936 | -16.02452 | 17453 ft | 289 kts | 272° |
| 2026-04-29 13:31 | 27.88124 | -16.04708 | 17129 ft | 287 kts | 272° |
| 2026-04-29 13:31 | 27.88312 | -16.06955 | 16803 ft | 286 kts | 273° |
| 2026-04-29 13:31 | 27.88498 | -16.09196 | 16482 ft | 284 kts | 273° |
| 2026-04-29 13:31 | 27.88682 | -16.11412 | 16173 ft | 283 kts | 273° |
| 2026-04-29 13:32 | 27.88742 | -16.12133 | 16070 ft | 282 kts | 273° |
| 2026-04-29 13:32 | 27.88773 | -16.12503 | 16018 ft | 282 kts | 273° |
| 2026-04-29 13:32 | 27.88956 | -16.14710 | 15707 ft | 281 kts | 273° |
| 2026-04-29 13:32 | 27.89137 | -16.16904 | 15397 ft | 280 kts | 273° |
| 2026-04-29 13:33 | 27.89318 | -16.19088 | 15093 ft | 279 kts | 273° |
| 2026-04-29 13:33 | 27.89497 | -16.21264 | 14779 ft | 278 kts | 273° |
| 2026-04-29 13:33 | 27.89676 | -16.23441 | 14472 ft | 277 kts | 274° |
| 2026-04-29 13:33 | 27.89848 | -16.25615 | 14164 ft | 276 kts | 271° |
| 2026-04-29 13:34 | 27.89600 | -16.27750 | 13809 ft | 276 kts | 252° |
| 2026-04-29 13:34 | 27.88903 | -16.29773 | 13427 ft | 276 kts | 247° |
| 2026-04-29 13:34 | 27.88129 | -16.31759 | 13096 ft | 275 kts | 246° |
| 2026-04-29 13:34 | 27.87362 | -16.33740 | 12775 ft | 274 kts | 247° |
| 2026-04-29 13:35 | 27.86608 | -16.35712 | 12467 ft | 273 kts | 247° |
| 2026-04-29 13:35 | 27.85863 | -16.37679 | 12160 ft | 271 kts | 247° |
| 2026-04-29 13:35 | 27.85128 | -16.39634 | 11858 ft | 270 kts | 247° |
| 2026-04-29 13:35 | 27.84396 | -16.41584 | 11558 ft | 269 kts | 247° |
| 2026-04-29 13:36 | 27.83677 | -16.43501 | 11266 ft | 268 kts | 247° |
| 2026-04-29 13:36 | 27.82953 | -16.45434 | 10971 ft | 267 kts | 247° |
| 2026-04-29 13:36 | 27.82229 | -16.47364 | 10671 ft | 266 kts | 247° |
| 2026-04-29 13:36 | 27.81506 | -16.49290 | 10374 ft | 266 kts | 247° |
| 2026-04-29 13:37 | 27.80786 | -16.51204 | 10160 ft | 262 kts | 247° |
| 2026-04-29 13:37 | 27.80084 | -16.53072 | 10038 ft | 256 kts | 247° |
| 2026-04-29 13:37 | 27.79383 | -16.54936 | 9674 ft | 259 kts | 247° |
| 2026-04-29 13:37 | 27.78681 | -16.56803 | 9378 ft | 258 kts | 247° |
| 2026-04-29 13:38 | 27.77981 | -16.58663 | 9075 ft | 257 kts | 247° |
| 2026-04-29 13:38 | 27.77520 | -16.59889 | 8893 ft | 256 kts | 247° |
| 2026-04-29 13:38 | 27.76824 | -16.61739 | 8611 ft | 255 kts | 247° |
| 2026-04-29 13:38 | 27.76133 | -16.63572 | 8387 ft | 251 kts | 247° |
| 2026-04-29 13:39 | 27.75458 | -16.65361 | 8276 ft | 246 kts | 247° |
| 2026-04-29 13:39 | 27.74791 | -16.67131 | 8175 ft | 246 kts | 247° |
| 2026-04-29 13:39 | 27.74382 | -16.68996 | 8050 ft | 247 kts | 271° |
| 2026-04-29 13:39 | 27.74787 | -16.70858 | 7845 ft | 253 kts | 296° |
| 2026-04-29 13:40 | 27.75869 | -16.72458 | 7611 ft | 261 kts | 312° |
| 2026-04-29 13:40 | 27.77191 | -16.73866 | 7334 ft | 261 kts | 316° |
| 2026-04-29 13:40 | 27.78542 | -16.75229 | 7055 ft | 260 kts | 316° |
| 2026-04-29 13:40 | 27.79885 | -16.76592 | 6782 ft | 259 kts | 316° |
| 2026-04-29 13:41 | 27.81214 | -16.77965 | 6502 ft | 258 kts | 315° |
| 2026-04-29 13:41 | 27.82531 | -16.79339 | 6224 ft | 258 kts | 315° |
| 2026-04-29 13:41 | 27.83844 | -16.80717 | 5931 ft | 257 kts | 315° |
| 2026-04-29 13:41 | 27.85151 | -16.82089 | 5644 ft | 256 kts | 315° |
| 2026-04-29 13:42 | 27.86580 | -16.83296 | 5345 ft | 257 kts | 332° |
| 2026-04-29 13:42 | 27.88215 | -16.84110 | 5087 ft | 256 kts | 336° |
| 2026-04-29 13:42 | 27.89874 | -16.84860 | 4819 ft | 256 kts | 337° |
| 2026-04-29 13:42 | 27.91579 | -16.85409 | 4519 ft | 257 kts | 356° |
| 2026-04-29 13:43 | 27.93298 | -16.85048 | 4262 ft | 256 kts | 25° |
| 2026-04-29 13:43 | 27.94660 | -16.83801 | 4011 ft | 253 kts | 53° |
| 2026-04-29 13:43 | 27.95514 | -16.82098 | 3900 ft | 245 kts | 65° |
| 2026-04-29 13:43 | 27.96207 | -16.80364 | 3761 ft | 239 kts | 66° |
| 2026-04-29 13:44 | 27.96892 | -16.78662 | 3538 ft | 237 kts | 64° |
| 2026-04-29 13:44 | 27.97600 | -16.76981 | 3298 ft | 236 kts | 66° |
| 2026-04-29 13:44 | 27.98227 | -16.75268 | 3060 ft | 235 kts | 69° |
| 2026-04-29 13:44 | 27.98819 | -16.73548 | 2876 ft | 232 kts | 69° |
| 2026-04-29 13:45 | 27.99401 | -16.71849 | 2630 ft | 232 kts | 69° |
| 2026-04-29 13:45 | 27.99988 | -16.70145 | 2349 ft | 232 kts | 69° |
| 2026-04-29 13:45 | 28.00573 | -16.68451 | 2057 ft | 229 kts | 69° |
| 2026-04-29 13:45 | 28.01136 | -16.66821 | 1740 ft | 215 kts | 69° |
| 2026-04-29 13:46 | 28.01666 | -16.65287 | 1464 ft | 205 kts | 69° |
| 2026-04-29 13:46 | 28.02163 | -16.63852 | 1194 ft | 189 kts | 70° |
| 2026-04-29 13:46 | 28.02619 | -16.62527 | 934 ft | 172 kts | 70° |
| 2026-04-29 13:46 | 28.03031 | -16.61330 | 699 ft | 155 kts | 70° |
| 2026-04-29 13:47 | 28.03411 | -16.60227 | 475 ft | 149 kts | 71° |
| 2026-04-29 13:47 | 28.03789 | -16.59141 | 295 ft | 146 kts | 71° |
| 2026-04-29 13:47 | 28.04146 | -16.58112 | 191 ft | 130 kts | 68° |
| 2026-04-29 13:47 | 28.04394 | -16.57396 | 203 ft | 66 kts | 68° |
| 2026-04-29 13:48 | 28.04506 | -16.57095 | 204 ft | 32 kts | 64° |
| 2026-04-29 13:48 | 28.04637 | -16.56903 | 205 ft | 30 kts | 47° |
| 2026-04-29 13:48 | 28.04768 | -16.56787 | 218 ft | 21 kts | 357° |
| 2026-04-29 13:48 | 28.04784 | -16.56827 | 220 ft | 7 kts | 255° |
| 2026-04-29 13:49 | 28.04755 | -16.56920 | 219 ft | 19 kts | 249° |
| 2026-04-29 13:49 | 28.04694 | -16.57095 | 221 ft | 29 kts | 248° |
| 2026-04-29 13:49 | 28.04609 | -16.57311 | 222 ft | 29 kts | 249° |
| 2026-04-29 13:49 | 28.04538 | -16.57517 | 222 ft | 27 kts | 248° |
| 2026-04-29 13:50 | 28.04470 | -16.57707 | 222 ft | 25 kts | 249° |
| 2026-04-29 13:50 | 28.04441 | -16.57817 | 222 ft | 7 kts | 290° |
| 2026-04-29 13:50 | 28.04486 | -16.57841 | 222 ft | 5 kts | 340° |
| 2026-04-29 13:50 | 28.04494 | -16.57844 | 222 ft | 0 kts | 339° |